createdAt,value
2018-03-30T00:00:37.522Z,8.02
2018-03-30T00:03:06.203Z,7.94
2018-03-30T00:05:34.893Z,7.79
2018-03-30T00:08:03.593Z,7.82
2018-03-30T00:10:32.456Z,7.85
2018-03-30T00:13:01.230Z,7.77
2018-03-30T00:15:29.950Z,7.83
2018-03-30T00:17:58.570Z,7.71
2018-03-30T00:20:27.493Z,7.72
2018-03-30T00:22:56.186Z,7.65
2018-03-30T00:25:24.939Z,7.63
2018-03-30T00:27:53.558Z,7.73
2018-03-30T00:30:22.381Z,7.74
2018-03-30T00:32:51.206Z,7.54
2018-03-30T00:35:19.930Z,7.60
2018-03-30T00:37:48.650Z,7.58
2018-03-30T00:40:17.573Z,7.56
2018-03-30T00:42:46.291Z,7.43
2018-03-30T00:45:15.014Z,7.56
2018-03-30T00:47:43.938Z,7.39
2018-03-30T00:50:12.583Z,7.54
2018-03-30T00:52:41.260Z,7.56
2018-03-30T00:55:10.200Z,7.55
2018-03-30T00:57:38.921Z,7.45
2018-03-30T01:00:07.553Z,7.34
2018-03-30T01:02:36.472Z,7.30
2018-03-30T01:05:05.307Z,7.26
2018-03-30T01:07:34.118Z,7.27
2018-03-30T01:10:02.734Z,7.21
2018-03-30T01:12:31.455Z,7.29
2018-03-30T01:15:00.184Z,7.27
2018-03-30T01:17:29.000Z,7.26
2018-03-30T01:19:57.824Z,7.23
2018-03-30T01:22:26.911Z,7.23
2018-03-30T01:24:55.607Z,7.26
2018-03-30T01:27:24.389Z,7.28
2018-03-30T01:29:53.119Z,7.30
2018-03-30T01:32:22.034Z,7.21
2018-03-30T01:34:50.820Z,7.17
2018-03-30T01:37:19.579Z,7.08
2018-03-30T01:39:48.407Z,7.19
2018-03-30T01:42:17.125Z,7.16
2018-03-30T01:44:45.844Z,7.15
2018-03-30T01:47:14.668Z,7.14
2018-03-30T01:49:43.393Z,7.08
2018-03-30T01:52:12.221Z,6.87
2018-03-30T01:54:41.635Z,6.93
2018-03-30T01:57:10.361Z,7.03
2018-03-30T01:59:39.080Z,7.05
2018-03-30T02:02:07.702Z,7.03
2018-03-30T02:04:36.625Z,7.05
2018-03-30T02:07:05.251Z,7.07
2018-03-30T02:09:34.002Z,7.07
2018-03-30T02:12:02.710Z,6.98
2018-03-30T02:14:31.513Z,6.95
2018-03-30T02:17:00.316Z,6.93
2018-03-30T02:19:28.960Z,6.85
2018-03-30T02:21:57.684Z,6.78
2018-03-30T02:24:26.375Z,6.81
2018-03-30T02:26:55.439Z,6.73
2018-03-30T02:29:24.043Z,6.65
2018-03-30T02:31:52.966Z,6.54
2018-03-30T02:34:21.603Z,6.54
2018-03-30T02:36:50.221Z,6.55
2018-03-30T02:39:35.554Z,6.51
2018-03-30T02:42:04.291Z,6.51
2018-03-30T02:44:32.933Z,6.48
2018-03-30T02:47:01.623Z,6.45
2018-03-30T02:49:30.832Z,6.39
2018-03-30T02:51:59.502Z,6.34
2018-03-30T02:54:28.130Z,6.33
2018-03-30T02:56:56.748Z,6.34
2018-03-30T02:59:25.375Z,6.38
2018-03-30T03:01:53.932Z,6.38
2018-03-30T03:04:22.478Z,6.42
2018-03-30T03:06:51.065Z,6.29
2018-03-30T03:09:19.594Z,6.26
2018-03-30T03:11:48.344Z,6.31
2018-03-30T03:14:16.868Z,6.25
2018-03-30T03:16:45.485Z,6.22
2018-03-30T03:19:14.041Z,6.23
2018-03-30T03:21:42.618Z,6.16
2018-03-30T03:24:11.252Z,5.97
2018-03-30T03:26:39.812Z,6.04
2018-03-30T03:29:08.377Z,6.08
2018-03-30T03:31:36.889Z,5.98
2018-03-30T03:34:05.451Z,6.15
2018-03-30T03:36:34.026Z,6.09
2018-03-30T03:39:02.610Z,5.98
2018-03-30T03:41:31.252Z,6.12
2018-03-30T03:43:59.925Z,6.04
2018-03-30T03:46:28.550Z,6.08
2018-03-30T03:48:57.269Z,6.10
2018-03-30T03:51:25.812Z,5.99
2018-03-30T03:53:54.411Z,5.96
2018-03-30T03:56:23.131Z,5.84
2018-03-30T03:58:51.713Z,5.79
2018-03-30T04:01:20.310Z,5.81
2018-03-30T04:03:49.716Z,5.78
2018-03-30T04:06:18.303Z,5.74
2018-03-30T04:08:46.838Z,5.79
2018-03-30T04:11:15.484Z,5.87
2018-03-30T04:13:44.075Z,5.83
2018-03-30T04:16:12.635Z,5.75
2018-03-30T04:18:42.232Z,4.84
2018-03-30T04:21:10.818Z,5.80
2018-03-30T04:23:39.479Z,5.79
2018-03-30T04:26:08.119Z,5.67
2018-03-30T04:28:36.815Z,5.78
2018-03-30T04:31:05.416Z,5.81
2018-03-30T04:33:33.967Z,5.83
2018-03-30T04:36:02.553Z,5.82
2018-03-30T04:38:31.135Z,5.94
2018-03-30T04:40:59.824Z,5.94
2018-03-30T04:43:28.374Z,6.02
2018-03-30T04:45:56.965Z,6.01
2018-03-30T04:48:25.524Z,6.16
2018-03-30T04:50:54.057Z,6.80
2018-03-30T04:53:22.659Z,7.73
2018-03-30T04:55:51.209Z,8.61
2018-03-30T04:58:19.799Z,9.09
2018-03-30T05:00:49.211Z,9.64
2018-03-30T05:03:17.798Z,10.17
2018-03-30T05:05:46.438Z,10.38
2018-03-30T05:08:15.065Z,10.78
2018-03-30T05:10:43.683Z,11.05
2018-03-30T05:13:12.262Z,11.20
2018-03-30T05:15:40.885Z,11.44
2018-03-30T05:18:09.612Z,11.88
2018-03-30T05:20:38.473Z,12.22
2018-03-30T05:23:07.018Z,12.80
2018-03-30T05:25:35.612Z,13.05
2018-03-30T05:28:04.213Z,13.40
2018-03-30T05:30:32.739Z,13.28
2018-03-30T05:33:01.328Z,13.89
2018-03-30T05:35:29.896Z,13.65
2018-03-30T05:37:58.430Z,13.90
2018-03-30T05:40:27.012Z,14.56
2018-03-30T05:42:55.666Z,15.16
2018-03-30T05:45:24.260Z,14.92
2018-03-30T05:47:52.784Z,14.98
2018-03-30T05:50:21.295Z,15.23
2018-03-30T05:52:50.233Z,15.57
2018-03-30T05:55:18.807Z,15.97
2018-03-30T05:57:47.382Z,16.80
2018-03-30T06:00:15.954Z,17.33
2018-03-30T06:02:44.649Z,17.43
2018-03-30T06:05:13.186Z,17.81
2018-03-30T06:07:41.777Z,17.84
2018-03-30T06:10:10.397Z,18.03
2018-03-30T06:12:38.941Z,18.38
2018-03-30T06:15:07.743Z,18.72
2018-03-30T06:17:36.368Z,19.51
2018-03-30T06:20:05.035Z,19.56
2018-03-30T06:22:33.610Z,19.10
2018-03-30T06:25:02.231Z,19.11
2018-03-30T06:27:30.780Z,19.60
2018-03-30T06:29:59.337Z,19.83
2018-03-30T06:32:27.992Z,19.96
2018-03-30T06:34:56.551Z,19.22
2018-03-30T06:37:25.134Z,19.17
2018-03-30T06:39:53.724Z,19.50
2018-03-30T06:42:22.312Z,19.36
2018-03-30T06:44:50.904Z,19.60
2018-03-30T06:47:19.523Z,19.32
2018-03-30T06:49:48.153Z,18.72
2018-03-30T06:52:16.765Z,19.27
2018-03-30T06:54:45.273Z,19.39
2018-03-30T06:57:14.687Z,19.20
2018-03-30T06:59:43.229Z,19.11
2018-03-30T07:02:11.814Z,19.58
2018-03-30T07:04:40.370Z,19.80
2018-03-30T07:07:08.997Z,19.58
2018-03-30T07:09:37.532Z,19.18
2018-03-30T07:12:06.139Z,19.89
2018-03-30T07:14:34.659Z,20.37
2018-03-30T07:17:03.249Z,19.40
2018-03-30T07:19:31.804Z,19.90
2018-03-30T07:22:00.375Z,20.35
2018-03-30T07:24:29.054Z,20.48
2018-03-30T07:26:57.589Z,20.84
2018-03-30T07:29:26.894Z,21.02
2018-03-30T07:31:56.200Z,21.87
2018-03-30T07:34:25.619Z,20.94
2018-03-30T07:36:54.158Z,21.06
2018-03-30T07:39:22.776Z,20.58
2018-03-30T07:41:51.402Z,20.68
2018-03-30T07:44:19.978Z,21.66
2018-03-30T07:46:48.545Z,22.54
2018-03-30T07:49:17.143Z,22.68
2018-03-30T07:51:45.740Z,21.98
2018-03-30T07:54:14.956Z,22.11
2018-03-30T07:56:43.534Z,22.15
2018-03-30T07:59:12.118Z,23.22
2018-03-30T08:01:40.653Z,22.42
2018-03-30T08:04:09.239Z,23.17
2018-03-30T08:06:37.795Z,22.77
2018-03-30T08:09:06.479Z,22.30
2018-03-30T08:11:35.076Z,21.50
2018-03-30T08:14:03.691Z,22.49
2018-03-30T08:16:32.303Z,22.39
2018-03-30T08:19:00.859Z,23.41
2018-03-30T08:21:29.431Z,22.63
2018-03-30T08:23:58.072Z,23.52
2018-03-30T08:26:27.417Z,23.31
2018-03-30T08:28:56.018Z,22.96
2018-03-30T08:31:24.609Z,24.41
2018-03-30T08:33:54.160Z,23.58
2018-03-30T08:36:22.700Z,23.89
2018-03-30T08:38:51.270Z,22.95
2018-03-30T08:41:19.857Z,22.85
2018-03-30T08:43:48.466Z,22.88
2018-03-30T08:46:17.035Z,23.51
2018-03-30T08:48:45.635Z,22.55
2018-03-30T08:51:14.178Z,23.64
2018-03-30T08:53:42.968Z,24.71
2018-03-30T08:56:11.564Z,24.71
2018-03-30T08:58:40.186Z,24.03
2018-03-30T09:01:08.800Z,23.70
2018-03-30T09:03:37.422Z,23.12
2018-03-30T09:06:06.053Z,23.81
2018-03-30T09:08:34.663Z,24.21
2018-03-30T09:11:03.267Z,24.47
2018-03-30T09:13:31.888Z,23.97
2018-03-30T09:16:00.547Z,24.29
2018-03-30T09:18:29.087Z,23.63
2018-03-30T09:20:57.743Z,23.58
2018-03-30T09:23:26.320Z,23.86
2018-03-30T09:25:55.013Z,24.44
2018-03-30T09:28:23.595Z,23.53
2018-03-30T09:30:52.267Z,24.14
2018-03-30T09:33:26.339Z,23.36
2018-03-30T09:35:55.031Z,24.07
2018-03-30T09:38:23.618Z,24.37
2018-03-30T09:40:52.225Z,24.26
2018-03-30T09:43:20.766Z,24.22
2018-03-30T09:45:49.334Z,24.17
2018-03-30T09:48:17.863Z,24.36
2018-03-30T09:50:46.395Z,25.06
2018-03-30T09:53:15.170Z,25.53
2018-03-30T09:55:43.713Z,25.07
2018-03-30T09:58:12.317Z,25.38
2018-03-30T10:00:43.903Z,24.89
2018-03-30T10:03:12.519Z,24.19
2018-03-30T10:05:41.198Z,25.29
2018-03-30T10:08:09.784Z,25.79
2018-03-30T10:10:39.078Z,24.63
2018-03-30T10:13:07.653Z,24.97
2018-03-30T10:15:36.216Z,23.63
2018-03-30T10:18:05.013Z,25.17
2018-03-30T10:20:33.673Z,25.52
2018-03-30T10:23:02.345Z,25.78
2018-03-30T10:25:30.967Z,25.26
2018-03-30T10:27:59.487Z,25.94
2018-03-30T10:30:28.079Z,25.97
2018-03-30T10:32:56.662Z,26.39
2018-03-30T10:35:25.254Z,24.43
2018-03-30T10:37:53.832Z,25.50
2018-03-30T10:40:22.389Z,24.44
2018-03-30T10:42:50.948Z,25.36
2018-03-30T10:45:19.534Z,24.75
2018-03-30T10:47:48.209Z,25.23
2018-03-30T10:50:16.791Z,25.58
2018-03-30T10:52:45.356Z,25.19
2018-03-30T10:55:13.987Z,25.56
2018-03-30T10:57:42.566Z,24.26
2018-03-30T11:00:11.140Z,24.64
2018-03-30T11:02:40.359Z,24.65
2018-03-30T11:05:08.918Z,25.06
2018-03-30T11:07:37.472Z,25.65
2018-03-30T11:10:06.094Z,25.99
2018-03-30T11:12:34.655Z,25.77
2018-03-30T11:15:03.232Z,26.21
2018-03-30T11:17:32.015Z,26.48
2018-03-30T11:20:00.580Z,25.90
2018-03-30T11:22:29.264Z,26.18
2018-03-30T11:24:57.985Z,26.67
2018-03-30T11:27:26.535Z,26.86
2018-03-30T11:29:55.876Z,25.71
2018-03-30T11:32:24.478Z,24.99
2018-03-30T11:34:52.996Z,25.35
2018-03-30T11:37:22.241Z,26.07
2018-03-30T11:39:50.919Z,25.46
2018-03-30T11:42:19.433Z,24.63
2018-03-30T11:44:47.992Z,24.06
2018-03-30T11:47:16.530Z,23.54
2018-03-30T11:49:45.043Z,23.97
2018-03-30T11:52:14.553Z,24.23
2018-03-30T11:54:43.147Z,25.10
2018-03-30T11:57:11.770Z,24.07
2018-03-30T11:59:40.340Z,23.76
2018-03-30T12:02:08.919Z,23.74
2018-03-30T12:04:38.333Z,22.41
2018-03-30T12:07:06.863Z,22.08
2018-03-30T12:09:35.402Z,21.82
2018-03-30T12:12:04.035Z,21.36
2018-03-30T12:14:32.560Z,21.97
2018-03-30T12:17:01.143Z,21.88
2018-03-30T12:19:29.765Z,21.94
2018-03-30T12:21:58.384Z,21.71
2018-03-30T12:24:27.006Z,21.58
2018-03-30T12:26:55.733Z,21.46
2018-03-30T12:29:24.331Z,21.66
2018-03-30T12:31:52.843Z,21.44
2018-03-30T12:34:21.390Z,21.26
2018-03-30T12:36:50.557Z,21.28
2018-03-30T12:39:19.118Z,21.09
2018-03-30T12:41:47.754Z,21.16
2018-03-30T12:44:16.320Z,21.27
2018-03-30T12:46:44.948Z,21.44
2018-03-30T12:49:13.474Z,21.51
2018-03-30T12:51:42.152Z,21.42
2018-03-30T12:54:10.716Z,21.67
2018-03-30T12:56:39.293Z,21.65
2018-03-30T12:59:07.985Z,21.59
2018-03-30T13:01:36.561Z,21.75
2018-03-30T13:04:05.249Z,21.75
2018-03-30T13:06:33.877Z,21.80
2018-03-30T13:09:03.104Z,21.86
2018-03-30T13:11:31.723Z,22.23
2018-03-30T13:14:00.313Z,22.08
2018-03-30T13:16:28.876Z,22.40
2018-03-30T13:18:57.394Z,22.36
2018-03-30T13:21:26.003Z,22.47
2018-03-30T13:23:54.601Z,22.56
2018-03-30T13:26:23.150Z,22.64
2018-03-30T13:28:51.763Z,22.66
2018-03-30T13:31:20.281Z,22.26
2018-03-30T13:33:48.887Z,22.13
2018-03-30T13:36:17.412Z,22.14
2018-03-30T13:38:45.967Z,22.05
2018-03-30T13:41:14.574Z,21.43
2018-03-30T13:43:43.150Z,21.83
2018-03-30T13:46:11.791Z,22.10
2018-03-30T13:48:40.341Z,22.17
2018-03-30T13:51:16.711Z,21.91
2018-03-30T13:53:47.723Z,22.00
2018-03-30T13:56:17.244Z,22.08
2018-03-30T13:58:48.322Z,21.74
2018-03-30T14:01:21.411Z,21.74
2018-03-30T14:03:57.794Z,21.67
2018-03-30T14:06:32.947Z,21.79
2018-03-30T14:12:08.538Z,21.67
2018-03-30T14:14:37.269Z,21.69
2018-03-30T14:17:11.775Z,21.54
2018-03-30T14:19:43.168Z,21.55
2018-03-30T14:22:20.660Z,21.54
2018-03-30T14:27:45.270Z,21.37
2018-03-30T14:30:21.276Z,21.65
2018-03-30T14:32:58.532Z,21.68
2018-03-30T14:35:37.759Z,21.81
2018-03-30T14:38:14.024Z,21.57
2018-03-30T14:40:47.414Z,21.57
2018-03-30T14:43:17.854Z,21.42
2018-03-30T14:45:47.386Z,21.58
2018-03-30T14:48:18.704Z,21.71
2018-03-30T14:54:07.534Z,21.77
2018-03-30T14:56:46.931Z,21.75
2018-03-30T14:59:31.453Z,21.95
2018-03-30T15:02:02.660Z,21.91
2018-03-30T15:07:51.109Z,21.90
2018-03-30T15:13:21.007Z,21.63
2018-03-30T15:16:01.347Z,21.32
2018-03-30T15:18:31.168Z,21.29
2018-03-30T15:21:08.379Z,21.08
2018-03-30T15:23:37.770Z,20.55
2018-03-30T15:26:09.995Z,20.34
2018-03-30T15:28:39.501Z,20.21
2018-03-30T15:31:11.056Z,20.41
2018-03-30T15:33:40.690Z,20.37
2018-03-30T15:36:13.080Z,20.32
2018-03-30T15:38:41.857Z,20.25
2018-03-30T15:41:10.624Z,20.16
2018-03-30T15:43:40.899Z,20.25
2018-03-30T15:46:25.017Z,20.34
2018-03-30T15:48:53.706Z,20.37
2018-03-30T15:51:23.154Z,20.34
2018-03-30T15:53:52.633Z,20.26
2018-03-30T15:56:21.353Z,20.22
2018-03-30T15:58:50.125Z,20.18
2018-03-30T16:01:18.865Z,20.10
2018-03-30T16:03:48.403Z,20.00
2018-03-30T16:06:17.063Z,20.00
2018-03-30T16:08:46.443Z,20.01
2018-03-30T16:11:18.874Z,19.98
2018-03-30T16:13:47.562Z,19.85
2018-03-30T16:16:16.194Z,19.82
2018-03-30T16:18:56.469Z,19.69
2018-03-30T16:21:24.534Z,19.63
2018-03-30T16:23:52.532Z,19.55
2018-03-30T16:26:20.545Z,19.47
2018-03-30T16:28:48.575Z,19.46
2018-03-30T16:31:16.778Z,19.38
2018-03-30T16:33:44.846Z,19.34
2018-03-30T16:36:12.919Z,19.24
2018-03-30T16:38:40.984Z,19.11
2018-03-30T16:41:08.702Z,19.05
2018-03-30T16:43:36.439Z,18.99
2018-03-30T16:46:04.204Z,18.78
2018-03-30T16:48:32.918Z,18.82
2018-03-30T16:51:00.700Z,18.00
2018-03-30T16:53:28.411Z,18.64
2018-03-30T16:55:56.088Z,18.54
2018-03-30T16:58:23.886Z,18.48
2018-03-30T17:00:51.705Z,18.47
2018-03-30T17:03:19.433Z,18.38
2018-03-30T17:05:47.138Z,18.27
2018-03-30T17:08:14.934Z,18.12
2018-03-30T17:10:42.676Z,18.07
2018-03-30T17:13:10.482Z,18.03
2018-03-30T17:15:38.414Z,17.95
2018-03-30T17:18:06.134Z,17.96
2018-03-30T17:20:34.353Z,17.80
2018-03-30T17:23:02.100Z,17.77
2018-03-30T17:25:29.796Z,17.67
2018-03-30T17:27:57.527Z,17.67
2018-03-30T17:30:25.345Z,17.59
2018-03-30T17:32:53.141Z,17.54
2018-03-30T17:35:20.880Z,17.50
2018-03-30T17:37:48.693Z,17.37
2018-03-30T17:40:16.381Z,17.32
2018-03-30T17:42:44.123Z,17.27
2018-03-30T17:45:11.954Z,17.19
2018-03-30T17:47:39.673Z,17.12
2018-03-30T17:50:07.416Z,16.96
2018-03-30T17:52:35.505Z,16.91
2018-03-30T17:55:03.255Z,16.87
2018-03-30T17:57:31.012Z,16.84
2018-03-30T17:59:58.763Z,16.68
2018-03-30T18:02:26.486Z,16.65
2018-03-30T18:04:54.221Z,16.57
2018-03-30T18:07:21.923Z,16.56
2018-03-30T18:09:49.667Z,16.45
2018-03-30T18:12:17.381Z,16.44
2018-03-30T18:14:45.103Z,16.37
2018-03-30T18:17:12.807Z,16.07
2018-03-30T18:19:40.512Z,16.03
2018-03-30T18:22:08.278Z,16.06
2018-03-30T18:24:36.135Z,16.02
2018-03-30T18:27:03.929Z,16.04
2018-03-30T18:29:31.600Z,16.04
2018-03-30T18:31:59.342Z,16.03
2018-03-30T18:34:27.109Z,16.04
2018-03-30T18:36:54.815Z,16.03
2018-03-30T18:39:22.573Z,15.97
2018-03-30T18:41:50.281Z,15.92
2018-03-30T18:44:17.970Z,15.92
2018-03-30T18:46:45.828Z,14.97
2018-03-30T18:49:13.513Z,15.88
2018-03-30T18:51:41.609Z,15.79
2018-03-30T18:54:09.338Z,15.82
2018-03-30T18:56:37.089Z,15.78
2018-03-30T18:59:04.826Z,15.81
2018-03-30T19:01:32.544Z,15.57
2018-03-30T19:04:00.282Z,15.50
2018-03-30T19:06:28.011Z,15.52
2018-03-30T19:08:55.739Z,15.58
2018-03-30T19:11:23.457Z,15.43
2018-03-30T19:13:51.802Z,15.50
2018-03-30T19:16:19.613Z,15.49
2018-03-30T19:18:47.350Z,15.33
2018-03-30T19:21:15.051Z,15.29
2018-03-30T19:23:42.806Z,15.27
2018-03-30T19:26:10.565Z,15.20
2018-03-30T19:28:38.325Z,15.15
2018-03-30T19:31:06.021Z,15.08
2018-03-30T19:33:33.773Z,15.14
2018-03-30T19:36:01.827Z,15.08
2018-03-30T19:38:29.592Z,15.08
2018-03-30T19:40:57.290Z,15.02
2018-03-30T19:43:25.234Z,14.99
2018-03-30T19:45:52.967Z,14.87
2018-03-30T19:48:20.868Z,14.89
2018-03-30T19:50:48.595Z,14.76
2018-03-30T19:53:16.406Z,14.75
2018-03-30T19:55:44.224Z,14.69
2018-03-30T19:58:12.445Z,14.64
2018-03-30T20:00:40.267Z,14.60
2018-03-30T20:03:08.186Z,14.60
2018-03-30T20:05:35.981Z,14.58
2018-03-30T20:08:03.717Z,14.59
2018-03-30T20:10:31.537Z,14.76
2018-03-30T20:12:59.369Z,14.67
2018-03-30T20:15:27.074Z,14.76
2018-03-30T20:17:54.856Z,14.80
2018-03-30T20:20:22.833Z,14.88
2018-03-30T20:22:50.566Z,14.91
2018-03-30T20:25:18.271Z,14.81
2018-03-30T20:27:45.987Z,14.75
2018-03-30T20:30:13.755Z,14.65
2018-03-30T20:32:41.481Z,14.66
2018-03-30T20:35:09.190Z,14.61
2018-03-30T20:37:36.942Z,14.65
2018-03-30T20:40:04.860Z,14.46
2018-03-30T20:42:32.593Z,14.56
2018-03-30T20:45:00.908Z,14.57
2018-03-30T20:47:28.721Z,14.53
2018-03-30T20:49:56.537Z,14.41
2018-03-30T20:52:24.428Z,14.24
2018-03-30T20:54:52.122Z,14.27
2018-03-30T20:57:19.992Z,14.19
2018-03-30T20:59:47.811Z,14.08
2018-03-30T21:02:16.232Z,14.07
2018-03-30T21:04:44.154Z,14.11
2018-03-30T21:07:11.914Z,14.09
2018-03-30T21:09:39.688Z,14.08
2018-03-30T21:12:07.439Z,14.05
2018-03-30T21:14:35.328Z,14.03
2018-03-30T21:17:03.146Z,14.01
2018-03-30T21:19:30.962Z,13.93
2018-03-30T21:21:58.724Z,13.96
2018-03-30T21:24:26.574Z,13.86
2018-03-30T21:26:54.421Z,13.81
2018-03-30T21:29:22.212Z,13.82
2018-03-30T21:31:49.957Z,13.77
2018-03-30T21:34:17.876Z,13.77
2018-03-30T21:36:45.595Z,13.73
2018-03-30T21:39:13.515Z,13.68
2018-03-30T21:41:41.412Z,13.67
2018-03-30T21:44:09.254Z,13.67
2018-03-30T21:46:37.070Z,13.58
2018-03-30T21:49:06.300Z,13.61
2018-03-30T21:51:35.319Z,13.52
2018-03-30T21:54:03.238Z,13.51
2018-03-30T21:56:31.137Z,13.52
2018-03-30T21:58:59.690Z,13.48
2018-03-30T22:01:27.543Z,13.47
2018-03-30T22:03:55.413Z,13.41
2018-03-30T22:06:23.235Z,13.32
2018-03-30T22:08:50.952Z,13.25
2018-03-30T22:11:18.836Z,13.18
2018-03-30T22:13:46.888Z,13.07
2018-03-30T22:16:14.713Z,13.01
2018-03-30T22:18:42.527Z,13.04
2018-03-30T22:21:10.447Z,12.93
2018-03-30T22:23:38.266Z,12.87
2018-03-30T22:26:05.986Z,12.87
2018-03-30T22:28:33.730Z,12.89
2018-03-30T22:31:01.439Z,12.87
2018-03-30T22:33:29.343Z,12.89
2018-03-30T22:35:57.170Z,12.89
2018-03-30T22:38:24.885Z,12.89
2018-03-30T22:40:53.014Z,12.98
2018-03-30T22:43:21.115Z,12.83
2018-03-30T22:45:48.897Z,12.72
2018-03-30T22:48:16.757Z,12.49
2018-03-30T22:50:44.672Z,12.43
2018-03-30T22:53:12.572Z,12.50
2018-03-30T22:55:40.410Z,12.37
2018-03-30T22:58:08.228Z,12.33
2018-03-30T23:00:36.150Z,12.38
2018-03-30T23:03:03.968Z,12.26
2018-03-30T23:05:32.689Z,12.20
2018-03-30T23:08:00.728Z,12.18
2018-03-30T23:10:28.794Z,12.20
2018-03-30T23:12:56.949Z,12.26
2018-03-30T23:15:25.066Z,12.11
2018-03-30T23:17:53.099Z,12.16
2018-03-30T23:20:21.206Z,12.01
2018-03-30T23:22:49.255Z,12.06
2018-03-30T23:25:17.383Z,11.93
2018-03-30T23:27:45.561Z,11.93
2018-03-30T23:30:13.652Z,11.91
2018-03-30T23:32:41.729Z,11.92
2018-03-30T23:35:10.528Z,11.91
2018-03-30T23:37:38.549Z,11.86
2018-03-30T23:40:06.767Z,11.85
2018-03-30T23:42:34.985Z,11.73
2018-03-30T23:45:03.106Z,11.73
2018-03-30T23:47:31.326Z,11.68
2018-03-30T23:49:59.434Z,11.65
2018-03-30T23:52:27.525Z,11.62
2018-03-30T23:54:55.606Z,11.66
2018-03-30T23:57:23.804Z,11.52
2018-03-30T23:59:52.027Z,11.39
